sensor_id;sensor_type;location;lat;lon;timestamp;P1;durP1;ratioP1;P2;durP2;ratioP2
17832;SDS011;9041;49.718;21.798;2022-10-26T00:00:42;14.10;;;8.07;;
17832;SDS011;9041;49.718;21.798;2022-10-26T00:03:11;16.02;;;8.27;;
17832;SDS011;9041;49.718;21.798;2022-10-26T00:05:37;14.95;;;8.23;;
17832;SDS011;9041;49.718;21.798;2022-10-26T00:08:04;15.13;;;7.80;;
17832;SDS011;9041;49.718;21.798;2022-10-26T00:10:34;19.70;;;8.48;;
17832;SDS011;9041;49.718;21.798;2022-10-26T00:13:01;15.95;;;8.70;;
17832;SDS011;9041;49.718;21.798;2022-10-26T00:15:29;19.05;;;7.85;;
17832;SDS011;9041;49.718;21.798;2022-10-26T00:17:56;16.20;;;8.82;;
17832;SDS011;9041;49.718;21.798;2022-10-26T00:20:23;14.43;;;8.25;;
17832;SDS011;9041;49.718;21.798;2022-10-26T00:22:50;14.63;;;8.10;;
17832;SDS011;9041;49.718;21.798;2022-10-26T00:25:16;18.33;;;8.88;;
17832;SDS011;9041;49.718;21.798;2022-10-26T00:27:45;15.55;;;7.72;;
17832;SDS011;9041;49.718;21.798;2022-10-26T00:30:19;14.98;;;8.20;;
17832;SDS011;9041;49.718;21.798;2022-10-26T00:32:45;15.13;;;8.27;;
17832;SDS011;9041;49.718;21.798;2022-10-26T00:35:15;11.57;;;6.90;;
17832;SDS011;9041;49.718;21.798;2022-10-26T00:37:42;11.23;;;6.97;;
17832;SDS011;9041;49.718;21.798;2022-10-26T00:40:09;12.35;;;6.95;;
17832;SDS011;9041;49.718;21.798;2022-10-26T00:42:36;11.57;;;6.38;;
17832;SDS011;9041;49.718;21.798;2022-10-26T00:45:05;13.98;;;7.47;;
17832;SDS011;9041;49.718;21.798;2022-10-26T00:47:37;14.85;;;7.25;;
17832;SDS011;9041;49.718;21.798;2022-10-26T00:50:07;10.18;;;5.90;;
17832;SDS011;9041;49.718;21.798;2022-10-26T00:52:36;9.68;;;6.25;;
17832;SDS011;9041;49.718;21.798;2022-10-26T00:55:04;10.18;;;5.93;;
17832;SDS011;9041;49.718;21.798;2022-10-26T00:57:35;10.20;;;6.13;;
17832;SDS011;9041;49.718;21.798;2022-10-26T01:00:04;13.23;;;7.28;;
17832;SDS011;9041;49.718;21.798;2022-10-26T01:02:33;12.93;;;6.85;;
17832;SDS011;9041;49.718;21.798;2022-10-26T01:05:00;14.23;;;7.28;;
17832;SDS011;9041;49.718;21.798;2022-10-26T01:07:28;11.88;;;8.00;;
17832;SDS011;9041;49.718;21.798;2022-10-26T01:09:55;13.70;;;6.75;;
17832;SDS011;9041;49.718;21.798;2022-10-26T01:12:22;14.57;;;6.97;;
17832;SDS011;9041;49.718;21.798;2022-10-26T01:14:49;13.40;;;7.30;;
17832;SDS011;9041;49.718;21.798;2022-10-26T01:17:21;9.52;;;6.63;;
17832;SDS011;9041;49.718;21.798;2022-10-26T01:20:03;19.95;;;10.38;;
17832;SDS011;9041;49.718;21.798;2022-10-26T01:22:53;11.82;;;7.72;;
17832;SDS011;9041;49.718;21.798;2022-10-26T01:25:27;15.35;;;7.72;;
17832;SDS011;9041;49.718;21.798;2022-10-26T01:28:06;15.13;;;7.65;;
17832;SDS011;9041;49.718;21.798;2022-10-26T01:30:38;14.27;;;7.35;;
17832;SDS011;9041;49.718;21.798;2022-10-26T01:33:25;15.32;;;6.47;;
17832;SDS011;9041;49.718;21.798;2022-10-26T01:36:01;13.95;;;7.00;;
17832;SDS011;9041;49.718;21.798;2022-10-26T01:38:33;14.55;;;7.40;;
17832;SDS011;9041;49.718;21.798;2022-10-26T01:41:07;13.55;;;7.30;;
17832;SDS011;9041;49.718;21.798;2022-10-26T01:43:39;16.02;;;8.10;;
17832;SDS011;9041;49.718;21.798;2022-10-26T01:46:09;14.70;;;7.95;;
17832;SDS011;9041;49.718;21.798;2022-10-26T01:48:37;16.85;;;9.02;;
17832;SDS011;9041;49.718;21.798;2022-10-26T01:51:05;10.75;;;6.38;;
17832;SDS011;9041;49.718;21.798;2022-10-26T01:53:33;13.13;;;6.20;;
17832;SDS011;9041;49.718;21.798;2022-10-26T01:56:00;10.00;;;5.75;;
17832;SDS011;9041;49.718;21.798;2022-10-26T01:58:50;91.82;;;9.00;;
17832;SDS011;9041;49.718;21.798;2022-10-26T02:01:35;144.77;;;12.73;;
17832;SDS011;9041;49.718;21.798;2022-10-26T02:04:19;52.25;;;9.05;;
17832;SDS011;9041;49.718;21.798;2022-10-26T02:06:56;104.22;;;11.23;;
17832;SDS011;9041;49.718;21.798;2022-10-26T02:09:28;51.33;;;10.30;;
17832;SDS011;9041;49.718;21.798;2022-10-26T02:11:59;30.92;;;8.25;;
17832;SDS011;9041;49.718;21.798;2022-10-26T02:14:31;26.25;;;9.43;;
17832;SDS011;9041;49.718;21.798;2022-10-26T02:17:06;40.70;;;10.23;;
17832;SDS011;9041;49.718;21.798;2022-10-26T02:19:39;26.10;;;12.07;;
17832;SDS011;9041;49.718;21.798;2022-10-26T02:22:12;23.90;;;11.82;;
17832;SDS011;9041;49.718;21.798;2022-10-26T02:24:46;116.15;;;15.45;;
17832;SDS011;9041;49.718;21.798;2022-10-26T02:27:15;121.82;;;14.38;;
17832;SDS011;9041;49.718;21.798;2022-10-26T02:29:44;43.47;;;11.65;;
17832;SDS011;9041;49.718;21.798;2022-10-26T02:32:16;36.95;;;10.70;;
17832;SDS011;9041;49.718;21.798;2022-10-26T02:34:44;35.75;;;9.55;;
17832;SDS011;9041;49.718;21.798;2022-10-26T02:37:12;34.17;;;9.73;;
17832;SDS011;9041;49.718;21.798;2022-10-26T02:39:41;44.85;;;11.35;;
17832;SDS011;9041;49.718;21.798;2022-10-26T02:42:08;15.55;;;9.40;;
17832;SDS011;9041;49.718;21.798;2022-10-26T02:44:36;38.03;;;9.63;;
17832;SDS011;9041;49.718;21.798;2022-10-26T02:47:07;107.97;;;12.07;;
17832;SDS011;9041;49.718;21.798;2022-10-26T02:49:35;65.53;;;10.40;;
17832;SDS011;9041;49.718;21.798;2022-10-26T02:52:03;17.42;;;7.78;;
17832;SDS011;9041;49.718;21.798;2022-10-26T02:54:35;55.97;;;8.93;;
17832;SDS011;9041;49.718;21.798;2022-10-26T02:57:08;12.40;;;7.47;;
17832;SDS011;9041;49.718;21.798;2022-10-26T02:59:38;64.93;;;11.02;;
17832;SDS011;9041;49.718;21.798;2022-10-26T03:02:07;12.02;;;7.95;;
17832;SDS011;9041;49.718;21.798;2022-10-26T03:04:35;22.00;;;8.57;;
17832;SDS011;9041;49.718;21.798;2022-10-26T03:07:02;12.73;;;7.63;;
17832;SDS011;9041;49.718;21.798;2022-10-26T03:09:31;13.88;;;8.18;;
17832;SDS011;9041;49.718;21.798;2022-10-26T03:11:57;15.57;;;10.02;;
17832;SDS011;9041;49.718;21.798;2022-10-26T03:14:24;16.15;;;8.80;;
17832;SDS011;9041;49.718;21.798;2022-10-26T03:16:51;16.92;;;9.95;;
17832;SDS011;9041;49.718;21.798;2022-10-26T03:19:20;14.80;;;8.43;;
17832;SDS011;9041;49.718;21.798;2022-10-26T03:21:49;17.02;;;8.10;;
17832;SDS011;9041;49.718;21.798;2022-10-26T03:24:15;15.57;;;9.43;;
17832;SDS011;9041;49.718;21.798;2022-10-26T03:26:45;17.52;;;8.98;;
17832;SDS011;9041;49.718;21.798;2022-10-26T03:29:15;17.73;;;9.77;;
17832;SDS011;9041;49.718;21.798;2022-10-26T03:31:41;17.10;;;9.93;;
17832;SDS011;9041;49.718;21.798;2022-10-26T03:34:08;19.55;;;9.52;;
17832;SDS011;9041;49.718;21.798;2022-10-26T03:36:38;16.33;;;9.18;;
17832;SDS011;9041;49.718;21.798;2022-10-26T03:39:06;17.08;;;9.23;;
17832;SDS011;9041;49.718;21.798;2022-10-26T03:41:32;15.20;;;9.00;;
17832;SDS011;9041;49.718;21.798;2022-10-26T03:43:59;14.45;;;8.38;;
17832;SDS011;9041;49.718;21.798;2022-10-26T03:46:26;18.25;;;8.10;;
17832;SDS011;9041;49.718;21.798;2022-10-26T03:48:53;17.25;;;8.02;;
17832;SDS011;9041;49.718;21.798;2022-10-26T03:51:20;15.82;;;8.32;;
17832;SDS011;9041;49.718;21.798;2022-10-26T03:53:46;16.60;;;8.90;;
17832;SDS011;9041;49.718;21.798;2022-10-26T03:56:14;14.20;;;9.00;;
17832;SDS011;9041;49.718;21.798;2022-10-26T03:58:41;22.20;;;13.05;;
17832;SDS011;9041;49.718;21.798;2022-10-26T04:01:08;21.33;;;12.27;;
17832;SDS011;9041;49.718;21.798;2022-10-26T04:03:35;25.63;;;12.55;;
17832;SDS011;9041;49.718;21.798;2022-10-26T04:06:01;27.25;;;14.73;;
17832;SDS011;9041;49.718;21.798;2022-10-26T04:08:31;23.90;;;12.88;;
17832;SDS011;9041;49.718;21.798;2022-10-26T04:10:58;26.48;;;13.88;;
17832;SDS011;9041;49.718;21.798;2022-10-26T04:13:26;23.00;;;13.25;;
17832;SDS011;9041;49.718;21.798;2022-10-26T04:15:53;22.02;;;12.57;;
17832;SDS011;9041;49.718;21.798;2022-10-26T04:18:20;22.10;;;12.82;;
17832;SDS011;9041;49.718;21.798;2022-10-26T04:20:47;23.00;;;11.75;;
17832;SDS011;9041;49.718;21.798;2022-10-26T04:23:14;23.52;;;12.23;;
17832;SDS011;9041;49.718;21.798;2022-10-26T04:25:42;25.08;;;12.73;;
17832;SDS011;9041;49.718;21.798;2022-10-26T04:28:10;22.10;;;11.88;;
17832;SDS011;9041;49.718;21.798;2022-10-26T04:30:39;25.38;;;12.98;;
17832;SDS011;9041;49.718;21.798;2022-10-26T04:33:06;24.10;;;12.50;;
17832;SDS011;9041;49.718;21.798;2022-10-26T04:35:33;25.83;;;15.05;;
17832;SDS011;9041;49.718;21.798;2022-10-26T04:38:00;22.88;;;12.10;;
17832;SDS011;9041;49.718;21.798;2022-10-26T04:40:29;21.77;;;11.95;;
17832;SDS011;9041;49.718;21.798;2022-10-26T04:42:56;24.67;;;12.82;;
17832;SDS011;9041;49.718;21.798;2022-10-26T04:45:23;24.80;;;12.68;;
17832;SDS011;9041;49.718;21.798;2022-10-26T04:48:00;19.25;;;11.77;;
17832;SDS011;9041;49.718;21.798;2022-10-26T04:50:28;20.33;;;11.88;;
17832;SDS011;9041;49.718;21.798;2022-10-26T04:52:55;18.70;;;11.02;;
17832;SDS011;9041;49.718;21.798;2022-10-26T04:55:21;19.45;;;10.18;;
17832;SDS011;9041;49.718;21.798;2022-10-26T04:57:48;16.20;;;10.63;;
17832;SDS011;9041;49.718;21.798;2022-10-26T05:00:15;20.75;;;11.70;;
17832;SDS011;9041;49.718;21.798;2022-10-26T05:02:42;17.60;;;10.13;;
17832;SDS011;9041;49.718;21.798;2022-10-26T05:05:13;20.83;;;11.35;;
17832;SDS011;9041;49.718;21.798;2022-10-26T05:07:40;21.80;;;11.15;;
17832;SDS011;9041;49.718;21.798;2022-10-26T05:10:07;17.15;;;10.40;;
17832;SDS011;9041;49.718;21.798;2022-10-26T05:12:34;20.50;;;11.50;;
17832;SDS011;9041;49.718;21.798;2022-10-26T05:15:01;21.58;;;10.52;;
17832;SDS011;9041;49.718;21.798;2022-10-26T05:17:29;16.50;;;10.02;;
17832;SDS011;9041;49.718;21.798;2022-10-26T05:19:55;21.05;;;10.50;;
17832;SDS011;9041;49.718;21.798;2022-10-26T05:22:25;22.77;;;12.05;;
17832;SDS011;9041;49.718;21.798;2022-10-26T05:24:52;23.05;;;13.05;;
17832;SDS011;9041;49.718;21.798;2022-10-26T05:27:19;21.45;;;12.25;;
17832;SDS011;9041;49.718;21.798;2022-10-26T05:29:45;21.73;;;12.38;;
17832;SDS011;9041;49.718;21.798;2022-10-26T05:32:15;24.38;;;12.18;;
17832;SDS011;9041;49.718;21.798;2022-10-26T05:34:42;24.08;;;12.13;;
17832;SDS011;9041;49.718;21.798;2022-10-26T05:37:09;17.75;;;11.27;;
17832;SDS011;9041;49.718;21.798;2022-10-26T05:39:37;17.40;;;10.27;;
17832;SDS011;9041;49.718;21.798;2022-10-26T05:42:04;17.60;;;10.20;;
17832;SDS011;9041;49.718;21.798;2022-10-26T05:44:30;16.90;;;10.48;;
17832;SDS011;9041;49.718;21.798;2022-10-26T05:46:57;19.75;;;11.63;;
17832;SDS011;9041;49.718;21.798;2022-10-26T05:49:24;22.40;;;12.07;;
17832;SDS011;9041;49.718;21.798;2022-10-26T05:51:50;23.38;;;12.07;;
17832;SDS011;9041;49.718;21.798;2022-10-26T05:54:17;25.77;;;12.55;;
17832;SDS011;9041;49.718;21.798;2022-10-26T05:56:46;24.15;;;13.55;;
17832;SDS011;9041;49.718;21.798;2022-10-26T05:59:14;28.98;;;14.73;;
17832;SDS011;9041;49.718;21.798;2022-10-26T06:01:53;34.47;;;19.15;;
17832;SDS011;9041;49.718;21.798;2022-10-26T06:04:35;35.80;;;21.33;;
17832;SDS011;9041;49.718;21.798;2022-10-26T06:07:03;31.15;;;19.30;;
17832;SDS011;9041;49.718;21.798;2022-10-26T06:09:35;35.33;;;20.67;;
17832;SDS011;9041;49.718;21.798;2022-10-26T06:12:04;35.80;;;21.05;;
17832;SDS011;9041;49.718;21.798;2022-10-26T06:14:32;32.20;;;20.00;;
17832;SDS011;9041;49.718;21.798;2022-10-26T06:17:11;35.30;;;20.70;;
17832;SDS011;9041;49.718;21.798;2022-10-26T06:19:48;40.75;;;21.02;;
17832;SDS011;9041;49.718;21.798;2022-10-26T06:22:26;38.53;;;21.83;;
17832;SDS011;9041;49.718;21.798;2022-10-26T06:24:59;35.22;;;19.15;;
17832;SDS011;9041;49.718;21.798;2022-10-26T06:27:48;31.42;;;15.80;;
17832;SDS011;9041;49.718;21.798;2022-10-26T06:30:22;26.88;;;16.08;;
17832;SDS011;9041;49.718;21.798;2022-10-26T06:32:50;29.25;;;15.85;;
17832;SDS011;9041;49.718;21.798;2022-10-26T06:35:21;30.38;;;15.25;;
17832;SDS011;9041;49.718;21.798;2022-10-26T06:37:53;37.42;;;19.40;;
17832;SDS011;9041;49.718;21.798;2022-10-26T06:40:21;59.03;;;22.45;;
17832;SDS011;9041;49.718;21.798;2022-10-26T06:42:50;64.15;;;27.13;;
17832;SDS011;9041;49.718;21.798;2022-10-26T06:45:17;55.10;;;24.63;;
17832;SDS011;9041;49.718;21.798;2022-10-26T06:47:46;42.70;;;21.38;;
17832;SDS011;9041;49.718;21.798;2022-10-26T06:50:22;40.78;;;20.67;;
17832;SDS011;9041;49.718;21.798;2022-10-26T06:52:54;35.85;;;19.35;;
17832;SDS011;9041;49.718;21.798;2022-10-26T06:55:27;38.00;;;16.17;;
17832;SDS011;9041;49.718;21.798;2022-10-26T06:57:58;34.38;;;15.90;;
17832;SDS011;9041;49.718;21.798;2022-10-26T07:00:25;33.88;;;16.92;;
17832;SDS011;9041;49.718;21.798;2022-10-26T07:02:52;35.00;;;17.13;;
17832;SDS011;9041;49.718;21.798;2022-10-26T07:05:19;33.60;;;17.33;;
17832;SDS011;9041;49.718;21.798;2022-10-26T07:07:46;27.55;;;14.63;;
17832;SDS011;9041;49.718;21.798;2022-10-26T07:10:13;25.55;;;13.38;;
17832;SDS011;9041;49.718;21.798;2022-10-26T07:12:40;23.25;;;12.27;;
17832;SDS011;9041;49.718;21.798;2022-10-26T07:15:09;23.67;;;11.88;;
17832;SDS011;9041;49.718;21.798;2022-10-26T07:17:41;29.15;;;13.15;;
17832;SDS011;9041;49.718;21.798;2022-10-26T07:20:09;22.40;;;10.98;;
17832;SDS011;9041;49.718;21.798;2022-10-26T07:22:36;20.08;;;10.57;;
17832;SDS011;9041;49.718;21.798;2022-10-26T07:25:03;14.30;;;9.63;;
17832;SDS011;9041;49.718;21.798;2022-10-26T07:27:32;16.88;;;9.10;;
17832;SDS011;9041;49.718;21.798;2022-10-26T07:29:58;12.32;;;8.10;;
17832;SDS011;9041;49.718;21.798;2022-10-26T07:32:29;19.75;;;8.50;;
17832;SDS011;9041;49.718;21.798;2022-10-26T07:34:57;11.75;;;8.05;;
17832;SDS011;9041;49.718;21.798;2022-10-26T07:37:26;13.15;;;7.57;;
17832;SDS011;9041;49.718;21.798;2022-10-26T07:39:53;12.68;;;6.97;;
17832;SDS011;9041;49.718;21.798;2022-10-26T07:42:20;12.45;;;6.20;;
17832;SDS011;9041;49.718;21.798;2022-10-26T07:44:47;16.35;;;6.57;;
17832;SDS011;9041;49.718;21.798;2022-10-26T07:47:14;16.55;;;7.00;;
17832;SDS011;9041;49.718;21.798;2022-10-26T07:49:42;16.38;;;6.78;;
17832;SDS011;9041;49.718;21.798;2022-10-26T07:52:08;9.02;;;5.97;;
17832;SDS011;9041;49.718;21.798;2022-10-26T07:54:35;10.18;;;6.15;;
17832;SDS011;9041;49.718;21.798;2022-10-26T07:57:02;13.25;;;6.28;;
17832;SDS011;9041;49.718;21.798;2022-10-26T07:59:29;8.95;;;5.97;;
17832;SDS011;9041;49.718;21.798;2022-10-26T08:01:56;10.13;;;6.20;;
17832;SDS011;9041;49.718;21.798;2022-10-26T08:04:23;13.77;;;5.95;;
17832;SDS011;9041;49.718;21.798;2022-10-26T08:06:51;14.57;;;6.35;;
17832;SDS011;9041;49.718;21.798;2022-10-26T08:09:18;12.25;;;6.30;;
17832;SDS011;9041;49.718;21.798;2022-10-26T08:11:47;12.80;;;6.00;;
17832;SDS011;9041;49.718;21.798;2022-10-26T08:14:16;12.20;;;6.80;;
17832;SDS011;9041;49.718;21.798;2022-10-26T08:16:43;10.00;;;5.25;;
17832;SDS011;9041;49.718;21.798;2022-10-26T08:19:10;12.35;;;5.43;;
17832;SDS011;9041;49.718;21.798;2022-10-26T08:21:38;21.55;;;6.00;;
17832;SDS011;9041;49.718;21.798;2022-10-26T08:24:07;15.48;;;5.95;;
17832;SDS011;9041;49.718;21.798;2022-10-26T08:26:34;20.00;;;6.28;;
17832;SDS011;9041;49.718;21.798;2022-10-26T08:29:00;28.23;;;7.72;;
17832;SDS011;9041;49.718;21.798;2022-10-26T08:31:27;19.05;;;6.88;;
17832;SDS011;9041;49.718;21.798;2022-10-26T08:33:54;15.00;;;5.53;;
17832;SDS011;9041;49.718;21.798;2022-10-26T08:36:21;17.13;;;6.63;;
17832;SDS011;9041;49.718;21.798;2022-10-26T08:38:50;17.67;;;6.55;;
17832;SDS011;9041;49.718;21.798;2022-10-26T08:41:19;25.08;;;7.43;;
17832;SDS011;9041;49.718;21.798;2022-10-26T08:43:51;15.95;;;5.50;;
17832;SDS011;9041;49.718;21.798;2022-10-26T08:46:20;8.15;;;4.30;;
17832;SDS011;9041;49.718;21.798;2022-10-26T08:48:50;13.00;;;5.13;;
17832;SDS011;9041;49.718;21.798;2022-10-26T08:51:21;14.15;;;5.32;;
17832;SDS011;9041;49.718;21.798;2022-10-26T08:53:51;14.07;;;5.30;;
17832;SDS011;9041;49.718;21.798;2022-10-26T08:56:27;15.43;;;5.47;;
17832;SDS011;9041;49.718;21.798;2022-10-26T08:58:57;7.32;;;4.00;;
17832;SDS011;9041;49.718;21.798;2022-10-26T09:01:27;7.68;;;4.70;;
17832;SDS011;9041;49.718;21.798;2022-10-26T09:03:56;9.85;;;4.80;;
17832;SDS011;9041;49.718;21.798;2022-10-26T09:06:24;9.48;;;4.85;;
17832;SDS011;9041;49.718;21.798;2022-10-26T09:08:59;12.40;;;4.60;;
17832;SDS011;9041;49.718;21.798;2022-10-26T09:11:35;11.73;;;4.78;;
17832;SDS011;9041;49.718;21.798;2022-10-26T09:14:09;14.43;;;5.07;;
17832;SDS011;9041;49.718;21.798;2022-10-26T09:16:40;11.98;;;5.28;;
17832;SDS011;9041;49.718;21.798;2022-10-26T09:19:18;24.10;;;6.07;;
17832;SDS011;9041;49.718;21.798;2022-10-26T09:22:06;9.60;;;4.20;;
17832;SDS011;9041;49.718;21.798;2022-10-26T09:24:38;8.35;;;4.45;;
17832;SDS011;9041;49.718;21.798;2022-10-26T09:27:10;10.27;;;4.25;;
17832;SDS011;9041;49.718;21.798;2022-10-26T09:29:40;7.72;;;4.40;;
17832;SDS011;9041;49.718;21.798;2022-10-26T09:32:09;13.93;;;5.20;;
17832;SDS011;9041;49.718;21.798;2022-10-26T09:34:40;12.02;;;4.70;;
17832;SDS011;9041;49.718;21.798;2022-10-26T09:37:10;25.77;;;6.15;;
17832;SDS011;9041;49.718;21.798;2022-10-26T09:39:41;12.20;;;4.80;;
17832;SDS011;9041;49.718;21.798;2022-10-26T09:42:15;27.45;;;5.25;;
17832;SDS011;9041;49.718;21.798;2022-10-26T09:44:44;8.88;;;4.20;;
17832;SDS011;9041;49.718;21.798;2022-10-26T09:47:26;9.10;;;3.70;;
17832;SDS011;9041;49.718;21.798;2022-10-26T09:49:57;6.78;;;3.15;;
17832;SDS011;9041;49.718;21.798;2022-10-26T09:52:28;8.15;;;3.13;;
17832;SDS011;9041;49.718;21.798;2022-10-26T09:54:56;6.13;;;2.83;;
17832;SDS011;9041;49.718;21.798;2022-10-26T09:57:25;8.90;;;3.08;;
17832;SDS011;9041;49.718;21.798;2022-10-26T09:59:51;7.10;;;2.70;;
17832;SDS011;9041;49.718;21.798;2022-10-26T10:02:32;12.02;;;2.65;;
17832;SDS011;9041;49.718;21.798;2022-10-26T10:07:49;7.55;;;2.67;;
17832;SDS011;9041;49.718;21.798;2022-10-26T10:10:17;9.93;;;3.08;;
17832;SDS011;9041;49.718;21.798;2022-10-26T10:12:46;4.00;;;2.90;;
17832;SDS011;9041;49.718;21.798;2022-10-26T10:15:16;5.13;;;2.30;;
17832;SDS011;9041;49.718;21.798;2022-10-26T10:17:48;6.45;;;3.28;;
17832;SDS011;9041;49.718;21.798;2022-10-26T10:20:19;5.72;;;2.53;;
17832;SDS011;9041;49.718;21.798;2022-10-26T10:22:51;4.88;;;2.47;;
17832;SDS011;9041;49.718;21.798;2022-10-26T10:25:30;4.97;;;2.30;;
17832;SDS011;9041;49.718;21.798;2022-10-26T10:28:02;4.53;;;1.75;;
17832;SDS011;9041;49.718;21.798;2022-10-26T10:30:33;4.63;;;2.33;;
17832;SDS011;9041;49.718;21.798;2022-10-26T10:33:03;5.07;;;1.95;;
17832;SDS011;9041;49.718;21.798;2022-10-26T10:35:31;8.23;;;1.60;;
17832;SDS011;9041;49.718;21.798;2022-10-26T10:37:58;3.38;;;1.42;;
17832;SDS011;9041;49.718;21.798;2022-10-26T10:40:25;5.45;;;1.88;;
17832;SDS011;9041;49.718;21.798;2022-10-26T10:43:02;7.10;;;1.90;;
17832;SDS011;9041;49.718;21.798;2022-10-26T10:45:30;4.40;;;1.85;;
17832;SDS011;9041;49.718;21.798;2022-10-26T10:48:00;4.28;;;2.08;;
17832;SDS011;9041;49.718;21.798;2022-10-26T10:50:28;3.92;;;1.85;;
17832;SDS011;9041;49.718;21.798;2022-10-26T10:55:44;5.03;;;1.88;;
17832;SDS011;9041;49.718;21.798;2022-10-26T10:58:22;4.93;;;1.92;;
17832;SDS011;9041;49.718;21.798;2022-10-26T11:00:51;5.65;;;1.80;;
17832;SDS011;9041;49.718;21.798;2022-10-26T11:03:23;4.07;;;1.75;;
17832;SDS011;9041;49.718;21.798;2022-10-26T11:06:09;4.90;;;2.03;;
17832;SDS011;9041;49.718;21.798;2022-10-26T11:08:40;5.43;;;1.80;;
17832;SDS011;9041;49.718;21.798;2022-10-26T11:11:10;4.57;;;1.90;;
17832;SDS011;9041;49.718;21.798;2022-10-26T11:13:43;7.70;;;2.17;;
17832;SDS011;9041;49.718;21.798;2022-10-26T11:16:15;4.70;;;2.20;;
17832;SDS011;9041;49.718;21.798;2022-10-26T11:18:47;5.57;;;1.88;;
17832;SDS011;9041;49.718;21.798;2022-10-26T11:21:18;3.22;;;1.60;;
17832;SDS011;9041;49.718;21.798;2022-10-26T11:23:49;7.70;;;2.10;;
17832;SDS011;9041;49.718;21.798;2022-10-26T11:26:20;3.38;;;2.00;;
17832;SDS011;9041;49.718;21.798;2022-10-26T11:28:50;4.97;;;1.58;;
17832;SDS011;9041;49.718;21.798;2022-10-26T11:31:21;4.03;;;1.67;;
17832;SDS011;9041;49.718;21.798;2022-10-26T11:33:58;3.80;;;1.65;;
17832;SDS011;9041;49.718;21.798;2022-10-26T11:36:36;3.40;;;1.60;;
17832;SDS011;9041;49.718;21.798;2022-10-26T11:39:07;4.70;;;2.00;;
17832;SDS011;9041;49.718;21.798;2022-10-26T11:41:39;4.22;;;1.40;;
17832;SDS011;9041;49.718;21.798;2022-10-26T11:44:10;6.78;;;1.65;;
17832;SDS011;9041;49.718;21.798;2022-10-26T11:46:40;4.35;;;1.75;;
17832;SDS011;9041;49.718;21.798;2022-10-26T11:49:10;5.65;;;1.80;;
17832;SDS011;9041;49.718;21.798;2022-10-26T11:51:40;4.30;;;1.33;;
17832;SDS011;9041;49.718;21.798;2022-10-26T11:54:09;1.67;;;1.35;;
17832;SDS011;9041;49.718;21.798;2022-10-26T11:56:40;4.90;;;1.52;;
17832;SDS011;9041;49.718;21.798;2022-10-26T11:59:14;3.97;;;1.40;;
17832;SDS011;9041;49.718;21.798;2022-10-26T12:01:44;4.47;;;1.63;;
17832;SDS011;9041;49.718;21.798;2022-10-26T12:04:12;3.10;;;1.50;;
17832;SDS011;9041;49.718;21.798;2022-10-26T12:06:40;5.20;;;1.50;;
17832;SDS011;9041;49.718;21.798;2022-10-26T12:09:07;6.35;;;1.73;;
17832;SDS011;9041;49.718;21.798;2022-10-26T12:11:40;3.10;;;1.20;;
17832;SDS011;9041;49.718;21.798;2022-10-26T12:14:15;4.80;;;1.38;;
17832;SDS011;9041;49.718;21.798;2022-10-26T12:16:47;1.63;;;1.10;;
17832;SDS011;9041;49.718;21.798;2022-10-26T12:19:21;2.47;;;1.30;;
17832;SDS011;9041;49.718;21.798;2022-10-26T12:21:52;3.50;;;1.50;;
17832;SDS011;9041;49.718;21.798;2022-10-26T12:24:26;3.35;;;1.23;;
17832;SDS011;9041;49.718;21.798;2022-10-26T12:26:59;1.95;;;1.30;;
17832;SDS011;9041;49.718;21.798;2022-10-26T12:35:32;5.53;;;1.58;;
17832;SDS011;9041;49.718;21.798;2022-10-26T12:38:25;3.47;;;1.30;;
17832;SDS011;9041;49.718;21.798;2022-10-26T12:41:11;1.98;;;1.00;;
17832;SDS011;9041;49.718;21.798;2022-10-26T12:43:44;4.20;;;1.20;;
17832;SDS011;9041;49.718;21.798;2022-10-26T12:52:28;2.33;;;1.27;;
17832;SDS011;9041;49.718;21.798;2022-10-26T12:55:12;3.03;;;1.20;;
17832;SDS011;9041;49.718;21.798;2022-10-26T12:57:45;4.13;;;2.00;;
17832;SDS011;9041;49.718;21.798;2022-10-26T13:00:17;1.92;;;1.10;;
17832;SDS011;9041;49.718;21.798;2022-10-26T13:02:52;2.30;;;1.20;;
17832;SDS011;9041;49.718;21.798;2022-10-26T13:05:28;2.15;;;1.20;;
17832;SDS011;9041;49.718;21.798;2022-10-26T13:08:16;2.35;;;1.45;;
17832;SDS011;9041;49.718;21.798;2022-10-26T13:10:44;3.13;;;1.40;;
17832;SDS011;9041;49.718;21.798;2022-10-26T13:13:25;3.08;;;1.40;;
17832;SDS011;9041;49.718;21.798;2022-10-26T13:15:54;3.78;;;1.50;;
17832;SDS011;9041;49.718;21.798;2022-10-26T13:18:23;6.53;;;1.40;;
17832;SDS011;9041;49.718;21.798;2022-10-26T13:20:57;2.70;;;1.55;;
17832;SDS011;9041;49.718;21.798;2022-10-26T13:23:29;2.40;;;1.35;;
17832;SDS011;9041;49.718;21.798;2022-10-26T13:26:01;1.52;;;1.20;;
17832;SDS011;9041;49.718;21.798;2022-10-26T13:28:33;2.95;;;1.33;;
17832;SDS011;9041;49.718;21.798;2022-10-26T13:31:10;4.60;;;1.83;;
17832;SDS011;9041;49.718;21.798;2022-10-26T13:33:45;2.33;;;1.45;;
17832;SDS011;9041;49.718;21.798;2022-10-26T13:36:14;5.15;;;1.60;;
17832;SDS011;9041;49.718;21.798;2022-10-26T13:38:43;4.53;;;2.15;;
17832;SDS011;9041;49.718;21.798;2022-10-26T13:41:15;8.90;;;2.30;;
17832;SDS011;9041;49.718;21.798;2022-10-26T13:43:47;9.73;;;2.47;;
17832;SDS011;9041;49.718;21.798;2022-10-26T13:46:19;5.95;;;2.70;;
17832;SDS011;9041;49.718;21.798;2022-10-26T13:48:52;8.20;;;3.22;;
17832;SDS011;9041;49.718;21.798;2022-10-26T13:51:20;11.40;;;5.22;;
17832;SDS011;9041;49.718;21.798;2022-10-26T13:53:49;18.80;;;9.35;;
17832;SDS011;9041;49.718;21.798;2022-10-26T13:56:21;13.27;;;6.05;;
17832;SDS011;9041;49.718;21.798;2022-10-26T13:58:56;12.30;;;5.20;;
17832;SDS011;9041;49.718;21.798;2022-10-26T14:01:25;24.48;;;9.65;;
17832;SDS011;9041;49.718;21.798;2022-10-26T14:03:55;24.50;;;9.05;;
17832;SDS011;9041;49.718;21.798;2022-10-26T14:06:23;21.52;;;8.23;;
17832;SDS011;9041;49.718;21.798;2022-10-26T14:08:57;30.70;;;11.05;;
17832;SDS011;9041;49.718;21.798;2022-10-26T14:11:33;165.13;;;73.68;;
17832;SDS011;9041;49.718;21.798;2022-10-26T14:14:01;28.35;;;14.95;;
17832;SDS011;9041;49.718;21.798;2022-10-26T14:16:29;7.25;;;3.88;;
17832;SDS011;9041;49.718;21.798;2022-10-26T14:18:58;6.15;;;3.30;;
17832;SDS011;9041;49.718;21.798;2022-10-26T14:21:25;5.22;;;2.63;;
17832;SDS011;9041;49.718;21.798;2022-10-26T14:23:53;6.47;;;3.20;;
17832;SDS011;9041;49.718;21.798;2022-10-26T14:26:21;9.30;;;3.67;;
17832;SDS011;9041;49.718;21.798;2022-10-26T14:28:51;8.38;;;3.80;;
17832;SDS011;9041;49.718;21.798;2022-10-26T14:31:22;13.85;;;4.50;;
17832;SDS011;9041;49.718;21.798;2022-10-26T14:33:50;25.63;;;10.23;;
17832;SDS011;9041;49.718;21.798;2022-10-26T14:36:19;41.88;;;16.90;;
17832;SDS011;9041;49.718;21.798;2022-10-26T14:38:48;12.82;;;5.85;;
17832;SDS011;9041;49.718;21.798;2022-10-26T14:41:18;11.07;;;5.15;;
17832;SDS011;9041;49.718;21.798;2022-10-26T14:43:46;11.85;;;4.80;;
17832;SDS011;9041;49.718;21.798;2022-10-26T14:46:13;17.73;;;5.20;;
17832;SDS011;9041;49.718;21.798;2022-10-26T14:48:45;39.53;;;13.05;;
17832;SDS011;9041;49.718;21.798;2022-10-26T14:51:17;22.48;;;8.95;;
17832;SDS011;9041;49.718;21.798;2022-10-26T14:53:48;41.33;;;13.50;;
17832;SDS011;9041;49.718;21.798;2022-10-26T14:56:17;15.25;;;6.40;;
17832;SDS011;9041;49.718;21.798;2022-10-26T14:58:47;15.25;;;7.25;;
17832;SDS011;9041;49.718;21.798;2022-10-26T15:01:23;41.72;;;13.82;;
17832;SDS011;9041;49.718;21.798;2022-10-26T15:03:51;92.63;;;30.52;;
17832;SDS011;9041;49.718;21.798;2022-10-26T15:06:34;95.80;;;32.90;;
17832;SDS011;9041;49.718;21.798;2022-10-26T15:09:06;60.03;;;22.10;;